Time;durP1;ratioP1;P1;durP2;ratioP2;P2;SDS_P1;SDS_P2;PMS_P1;PMS_P2;Temp;Humidity;BMP_temperature;BMP_pressure;BME280_temperature;BME280_humidity;BME280_pressure;Samples;Min_cycle;Max_cycle;Signal;HPM_P1;HPM_P2
2022/09/15 00:01:00;;;;;;;0.10;0.10;;;;;;;11.52;96.27;98217.88;5006380;28;20054;-66
2022/09/15 00:03:27;;;;;;;;;;;;;;;11.55;96.54;98214.50;5006406;28;20053;-65
2022/09/15 00:05:53;;;;;;;0.10;0.10;;;;;;;11.58;96.27;98213.88;5005792;28;19960;-65
2022/09/15 00:08:19;;;;;;;0.10;0.10;;;;;;;11.58;96.22;98219.34;5005600;28;20752;-65
2022/09/15 00:10:48;;;;;;;0.10;0.10;;;;;;;11.60;96.14;98222.56;4971545;28;20053;-67
2022/09/15 00:13:15;;;;;;;0.20;0.20;;;;;;;11.59;95.85;98216.28;5006015;28;20042;-65
2022/09/15 00:15:41;;;;;;;0.10;0.10;;;;;;;11.64;96.03;98212.59;5005171;28;20045;-66
2022/09/15 00:18:08;;;;;;;0.20;0.20;;;;;;;11.65;95.67;98211.47;4987645;28;20522;-65
2022/09/15 00:20:38;;;;;;;0.20;0.20;;;;;;;11.66;95.77;98210.34;5006250;28;20137;-65
2022/09/15 00:23:04;;;;;;;0.20;0.20;;;;;;;11.69;95.81;98212.44;5004782;28;20049;-65
2022/09/15 00:25:30;;;;;;;0.20;0.20;;;;;;;11.69;95.75;98206.16;5008490;28;20100;-65
2022/09/15 00:27:56;;;;;;;0.20;0.20;;;;;;;11.68;95.83;98201.81;4989287;28;20046;-66
2022/09/15 00:30:22;;;;;;;0.13;0.13;;;;;;;11.68;95.72;98204.56;5007177;28;20064;-65
2022/09/15 00:32:48;;;;;;;0.17;0.17;;;;;;;11.69;95.79;98206.16;5007190;28;20072;-65
2022/09/15 00:35:16;;;;;;;0.20;0.20;;;;;;;11.70;95.89;98210.50;4987635;28;20045;-66
2022/09/15 00:37:42;;;;;;;0.25;0.20;;;;;;;11.70;95.60;98205.81;4972127;28;20460;-66
2022/09/15 00:40:09;;;;;;;0.20;0.20;;;;;;;11.70;95.78;98203.09;4987015;28;20053;-65
2022/09/15 00:42:36;;;;;;;0.17;0.17;;;;;;;11.68;95.75;98208.06;5004076;28;20048;-65
2022/09/15 00:45:03;;;;;;;0.20;0.20;;;;;;;11.69;95.57;98206.16;5006115;28;20037;-66
2022/09/15 00:47:35;;;;;;;0.20;0.20;;;;;;;11.63;95.54;98195.38;5006260;28;20170;-65
2022/09/15 00:50:05;;;;;;;0.20;0.20;;;;;;;11.69;95.56;98206.16;5006323;28;20061;-66
2022/09/15 00:52:39;;;;;;;0.20;0.20;;;;;;;11.67;95.33;98194.72;5004463;28;20509;-66
2022/09/15 00:55:09;;;;;;;0.20;0.20;;;;;;;11.68;95.62;98197.13;4983810;28;20050;-66
2022/09/15 00:57:40;;;;;;;0.20;0.20;;;;;;;11.70;95.80;98200.34;5005507;28;20112;-66
2022/09/15 01:00:10;;;;;;;0.10;0.10;;;;;;;11.71;95.33;98195.69;4970092;28;20496;-66
2022/09/15 01:02:37;;;;;;;0.20;0.20;;;;;;;11.70;95.55;98194.88;4971449;28;20119;-66
2022/09/15 01:05:06;;;;;;;;;;;;;;;11.73;95.40;98190.69;5005751;28;20046;-66
2022/09/15 01:07:36;;;;;;;0.20;0.20;;;;;;;11.71;94.96;98195.69;4987699;28;19932;-66
2022/09/15 01:10:07;;;;;;;0.13;0.13;;;;;;;11.72;94.78;98195.38;4985893;28;20602;-66
2022/09/15 01:12:33;;;;;;;0.20;0.20;;;;;;;11.72;94.71;98192.63;5002279;28;20140;-66
2022/09/15 01:15:00;;;;;;;0.20;0.20;;;;;;;11.72;94.66;98198.13;5003894;28;20066;-67
2022/09/15 01:17:36;;;;;;;0.20;0.20;;;;;;;11.72;94.44;98202.78;5002680;28;20049;-64
2022/09/15 01:20:38;;;;;;;0.20;0.20;;;;;;;11.72;94.63;98191.81;5005578;28;20053;-66
2022/09/15 01:23:25;;;;;;;0.20;0.20;;;;;;;11.73;94.64;98188.78;5004500;28;20129;-67
2022/09/15 01:26:17;;;;;;;0.20;0.20;;;;;;;11.75;94.92;98191.16;5003971;28;20293;-67
2022/09/15 01:29:16;;;;;;;0.20;0.20;;;;;;;11.62;94.74;98177.31;4985862;28;20057;-66
2022/09/15 01:34:40;;;;;;;0.10;0.10;;;;;;;11.69;95.04;98179.56;5003351;28;20045;-66
2022/09/15 01:37:13;;;;;;;0.13;0.13;;;;;;;11.72;94.75;98184.44;5004927;28;20332;-66
2022/09/15 01:39:44;;;;;;;0.20;0.20;;;;;;;11.73;94.43;98193.44;4970095;28;20056;-67
2022/09/15 01:42:15;;;;;;;0.10;0.10;;;;;;;11.72;94.52;98189.09;5003605;28;20052;-66
2022/09/15 01:44:44;;;;;;;0.20;0.20;;;;;;;11.74;94.67;98190.38;4970153;28;20210;-66
2022/09/15 01:47:15;;;;;;;0.10;0.10;;;;;;;11.75;94.93;98180.22;4985603;28;20054;-66
2022/09/15 01:49:47;;;;;;;0.10;0.10;;;;;;;11.76;95.08;98182.66;5002500;28;20108;-66
2022/09/15 01:52:15;;;;;;;0.10;0.10;;;;;;;11.76;94.63;98185.38;5003726;28;20405;-66
2022/09/15 01:54:47;;;;;;;0.20;0.20;;;;;;;11.78;94.63;98188.59;4984599;28;20140;-67
2022/09/15 01:57:16;;;;;;;0.10;0.10;;;;;;;11.76;94.79;98187.31;4988045;28;20145;-66
2022/09/15 01:59:42;;;;;;;0.20;0.20;;;;;;;11.76;94.77;98182.66;5005150;28;20496;-65
2022/09/15 02:02:14;;;;;;;0.10;0.10;;;;;;;11.76;94.80;98188.13;5003723;28;20057;-66
2022/09/15 02:04:47;;;;;;;0.10;0.10;;;;;;;11.76;94.99;98190.88;5002760;28;20088;-67
2022/09/15 02:07:20;;;;;;;0.20;0.20;;;;;;;11.76;94.82;98185.38;5002342;28;20107;-66
2022/09/15 02:09:53;;;;;;;0.20;0.20;;;;;;;11.77;94.63;98186.19;5001846;28;20104;-65
2022/09/15 02:12:25;;;;;;;0.10;0.10;;;;;;;11.77;94.92;98191.66;4984117;28;20050;-66
2022/09/15 02:14:56;;;;;;;0.20;0.20;;;;;;;11.73;94.61;98193.44;5003125;28;20144;-66
2022/09/15 02:17:27;;;;;;;0.20;0.20;;;;;;;11.71;94.91;98185.56;4985502;28;20154;-65
2022/09/15 02:19:57;;;;;;;0.20;0.20;;;;;;;11.73;94.84;98196.16;4986734;28;20056;-67
2022/09/15 02:22:26;;;;;;;0.20;0.20;;;;;;;11.72;94.93;98189.91;5005426;28;20050;-67
2022/09/15 02:25:01;;;;;;;0.20;0.20;;;;;;;11.74;95.03;98178.63;4983109;28;20061;-66
2022/09/15 02:27:33;;;;;;;0.20;0.20;;;;;;;11.76;94.99;98190.88;4985038;28;20049;-67
2022/09/15 02:30:05;;;;;;;0.20;0.20;;;;;;;11.78;95.30;98185.03;4981697;28;20041;-66
2022/09/15 02:32:35;;;;;;;0.20;0.20;;;;;;;11.80;95.01;98182.00;5004427;28;20518;-66
2022/09/15 02:35:07;;;;;;;0.20;0.20;;;;;;;11.83;94.87;98184.09;5002764;28;20423;-67
2022/09/15 02:37:35;;;;;;;0.15;0.15;;;;;;;11.82;94.80;98185.22;4985487;28;20046;-66
2022/09/15 02:40:02;;;;;;;0.10;0.10;;;;;;;11.82;94.81;98177.81;5002221;28;20076;-67
2022/09/15 02:42:30;;;;;;;;;;;;;;;11.82;94.43;98180.56;5003619;28;20062;-66
2022/09/15 02:44:58;;;;;;;0.10;0.10;;;;;;;11.82;94.48;98185.22;5004893;28;19980;-67
2022/09/15 02:47:24;;;;;;;0.20;0.20;;;;;;;11.81;94.21;98181.69;4986679;28;20046;-66
2022/09/15 02:49:52;;;;;;;0.20;0.20;;;;;;;11.81;94.05;98186.34;5002887;28;20050;-67
2022/09/15 02:52:19;;;;;;;0.10;0.10;;;;;;;11.80;93.99;98187.47;4984433;28;20529;-66
2022/09/15 02:54:45;;;;;;;0.10;0.10;;;;;;;11.79;94.13;98181.22;5002197;28;20067;-67
2022/09/15 02:57:13;;;;;;;0.10;0.10;;;;;;;11.81;94.26;98189.91;4986122;28;20046;-66
2022/09/15 03:02:24;;;;;;;0.10;0.10;;;;;;;11.82;93.98;98190.69;5001962;28;20456;-65
2022/09/15 03:04:50;;;;;;;0.10;0.10;;;;;;;11.83;93.82;98189.56;4986792;28;20124;-65
2022/09/15 03:07:18;;;;;;;0.10;0.10;;;;;;;11.82;93.83;98188.78;5002580;28;20050;-68
2022/09/15 03:09:44;;;;;;;0.20;0.20;;;;;;;11.83;93.99;98187.63;5004716;28;20054;-67
2022/09/15 03:12:11;;;;;;;0.10;0.10;;;;;;;11.82;93.62;98190.69;4984941;28;20053;-67
2022/09/15 03:14:37;;;;;;;0.10;0.10;;;;;;;11.83;93.43;98189.56;5004302;28;20100;-66
2022/09/15 03:17:03;;;;;;;0.20;0.20;;;;;;;11.82;93.85;98198.91;5002974;28;20100;-66
2022/09/15 03:19:29;;;;;;;0.20;0.20;;;;;;;11.84;93.75;98185.69;5006016;28;20108;-67
2022/09/15 03:21:56;;;;;;;0.10;0.10;;;;;;;11.88;93.72;98186.69;4984174;28;20057;-68
2022/09/15 03:24:23;;;;;;;0.10;0.10;;;;;;;11.90;93.49;98192.63;4983952;28;20041;-66
2022/09/15 03:26:49;;;;;;;0.22;0.22;;;;;;;11.92;93.51;98193.13;4984518;28;20057;-66
2022/09/15 03:29:15;;;;;;;0.10;0.10;;;;;;;11.91;93.66;98189.56;5002357;28;20132;-65
2022/09/15 03:31:41;;;;;;;0.20;0.20;;;;;;;11.91;93.77;98188.75;5002550;28;20058;-66
2022/09/15 03:34:07;;;;;;;0.13;0.13;;;;;;;11.91;93.53;98186.81;4986200;28;20458;-66
2022/09/15 03:36:33;;;;;;;0.17;0.17;;;;;;;11.93;93.45;98194.72;4984661;28;20543;-66
2022/09/15 03:39:00;;;;;;;0.20;0.20;;;;;;;11.75;93.20;98161.06;5004848;28;20050;-64
2022/09/15 03:41:28;;;;;;;0.15;0.15;;;;;;;11.92;93.34;98193.13;5004175;28;20854;-66
2022/09/15 03:43:54;;;;;;;0.10;0.10;;;;;;;11.92;92.76;98191.16;5002617;28;20464;-65
2022/09/15 03:46:20;;;;;;;0.20;0.20;;;;;;;11.94;92.81;98188.13;5002674;28;20540;-67
2022/09/15 03:48:46;;;;;;;0.20;0.20;;;;;;;11.95;93.15;98194.41;4985582;28;20066;-70
2022/09/15 03:51:12;;;;;;;0.20;0.20;;;;;;;11.99;92.97;98190.69;5004037;28;20136;-67
2022/09/15 03:53:40;;;;;;;0.25;0.25;;;;;;;11.97;92.73;98187.47;5002087;28;20034;-67
2022/09/15 03:56:08;;;;;;;0.20;0.20;;;;;;;11.98;92.24;98188.28;5002074;28;20397;-66
2022/09/15 03:58:36;;;;;;;0.10;0.10;;;;;;;11.97;92.14;98192.16;4985762;28;20057;-66
2022/09/15 04:01:02;;;;;;;;;;;;;;;11.97;91.93;98181.97;5002774;28;20030;-65
2022/09/15 04:03:28;;;;;;;0.10;0.10;;;;;;;11.94;91.68;98176.34;5003794;28;19929;-65
2022/09/15 04:05:54;;;;;;;0.17;0.17;;;;;;;11.97;91.69;98179.25;5002337;28;20057;-66
2022/09/15 04:08:20;;;;;;;0.25;0.20;;;;;;;11.99;91.67;98174.25;5001987;28;20313;-66
2022/09/15 04:10:47;;;;;;;0.20;0.20;;;;;;;12.00;91.73;98180.53;5002498;28;20049;-67
2022/09/15 04:13:13;;;;;;;0.10;0.10;;;;;;;12.01;91.87;98184.88;5003938;28;20060;-67
2022/09/15 04:15:40;;;;;;;0.20;0.20;;;;;;;12.01;91.92;98184.88;4985860;28;20042;-67
2022/09/15 04:18:06;;;;;;;0.20;0.20;;;;;;;12.05;92.03;98185.88;5000072;28;20046;-66
2022/09/15 04:20:32;;;;;;;0.20;0.20;;;;;;;12.07;92.14;98196.53;4987195;28;20042;-65
2022/09/15 04:22:58;;;;;;;0.13;0.13;;;;;;;12.07;92.04;98191.84;5002634;28;20056;-65
2022/09/15 04:25:26;;;;;;;0.20;0.20;;;;;;;12.07;91.72;98191.03;5002688;28;20113;-65
2022/09/15 04:27:52;;;;;;;0.17;0.17;;;;;;;12.04;91.66;98187.81;5003565;28;20451;-65
2022/09/15 04:30:19;;;;;;;0.20;0.20;;;;;;;11.81;91.95;98161.69;5006810;28;20053;-67
2022/09/15 04:32:47;;;;;;;0.10;0.10;;;;;;;12.04;92.07;98189.75;5007658;28;20050;-65
2022/09/15 04:35:13;;;;;;;0.20;0.20;;;;;;;12.04;91.77;98197.97;5006329;28;20121;-67
2022/09/15 04:37:39;;;;;;;0.20;0.20;;;;;;;12.03;91.86;98194.44;5004495;28;20045;-66
2022/09/15 04:40:07;;;;;;;0.20;0.20;;;;;;;12.03;91.84;98197.16;4986309;28;20544;-66
2022/09/15 04:42:34;;;;;;;0.10;0.10;;;;;;;12.02;91.84;98197.47;4988918;28;20046;-66
2022/09/15 04:45:00;;;;;;;0.10;0.10;;;;;;;11.94;91.98;98193.59;4981351;28;20050;-67
2022/09/15 04:47:26;;;;;;;0.20;0.20;;;;;;;11.78;91.71;98199.56;5003232;28;20070;-65
2022/09/15 04:49:54;;;;;;;0.20;0.20;;;;;;;11.71;92.33;98201.97;4987758;28;20612;-65
2022/09/15 04:52:20;;;;;;;0.20;0.20;;;;;;;11.64;92.58;98196.16;5006308;28;20504;-66
2022/09/15 04:54:46;;;;;;;0.10;0.10;;;;;;;11.57;92.80;98187.63;4988323;28;20077;-66
2022/09/15 04:57:12;;;;;;;0.20;0.20;;;;;;;11.68;92.80;98196.34;4986742;28;20046;-67
2022/09/15 04:59:38;;;;;;;0.20;0.20;;;;;;;11.71;93.03;98193.78;5002104;28;20056;-67
2022/09/15 05:02:04;;;;;;;0.20;0.20;;;;;;;11.70;92.73;98197.59;5001926;28;20073;-67
2022/09/15 05:04:30;;;;;;;0.10;0.10;;;;;;;11.70;92.73;98196.81;4982741;28;20494;-67
2022/09/15 05:06:58;;;;;;;0.20;0.20;;;;;;;11.75;92.93;98202.13;5007086;28;20051;-67
2022/09/15 05:09:25;;;;;;;;;;;;;;;11.80;92.96;98195.69;5015963;28;20038;-67
2022/09/15 05:11:54;;;;;;;0.10;0.10;;;;;;;11.78;92.72;98198.75;5017118;28;20020;-68
2022/09/15 05:14:20;;;;;;;0.20;0.20;;;;;;;11.77;92.47;98194.38;5007432;28;20053;-67
2022/09/15 05:16:46;;;;;;;0.10;0.10;;;;;;;11.75;92.54;98196.66;5010671;28;20046;-68
2022/09/15 05:19:12;;;;;;;0.10;0.10;;;;;;;11.64;92.21;98204.38;5008901;28;20390;-68
2022/09/15 05:21:38;;;;;;;0.20;0.20;;;;;;;11.50;92.00;98190.84;5011025;28;20066;-67
2022/09/15 05:24:06;;;;;;;0.10;0.10;;;;;;;11.38;92.31;98193.41;5018028;28;20056;-67
2022/09/15 05:26:32;;;;;;;0.20;0.20;;;;;;;11.31;92.12;98202.88;5015049;28;20971;-67
2022/09/15 05:28:59;;;;;;;0.20;0.20;;;;;;;11.21;92.43;98198.50;5015670;28;20437;-67
2022/09/15 05:31:26;;;;;;;0.17;0.17;;;;;;;11.17;92.46;98191.28;4988252;28;20050;-66
2022/09/15 05:33:53;;;;;;;0.10;0.10;;;;;;;11.12;92.58;98200.44;5006107;28;20054;-67
2022/09/15 05:36:23;;;;;;;0.20;0.20;;;;;;;10.99;92.38;98198.63;4987432;28;20085;-67
2022/09/15 05:38:50;;;;;;;0.13;0.13;;;;;;;10.85;92.76;98202.25;5011925;28;20060;-67
2022/09/15 05:41:18;;;;;;;0.10;0.10;;;;;;;10.81;93.13;98205.94;5008142;28;20046;-65
2022/09/15 05:43:45;;;;;;;0.10;0.10;;;;;;;10.81;93.21;98205.94;4985005;28;20096;-66
2022/09/15 05:46:12;;;;;;;0.10;0.10;;;;;;;10.85;93.67;98210.47;5005860;28;20521;-65
2022/09/15 05:48:39;;;;;;;0.20;0.20;;;;;;;10.84;93.66;98205.31;5005033;28;20060;-66
2022/09/15 05:51:05;;;;;;;0.10;0.10;;;;;;;10.87;93.53;98207.44;4995213;28;20046;-65
2022/09/15 05:53:33;;;;;;;0.30;0.30;;;;;;;10.94;93.43;98209.72;4984810;28;20398;-65
2022/09/15 05:55:59;;;;;;;;;;;;;;;10.95;93.26;98214.84;5009499;28;20884;-65
2022/09/15 05:58:28;;;;;;;0.10;0.10;;;;;;;10.94;93.34;98215.97;5005719;28;20396;-65
2022/09/15 06:00:54;;;;;;;0.10;0.10;;;;;;;11.03;93.00;98221.47;4985975;28;20104;-65
2022/09/15 06:03:22;;;;;;;0.10;0.10;;;;;;;11.03;92.56;98219.56;5012094;28;20564;-65
2022/09/15 06:05:48;;;;;;;0.10;0.10;;;;;;;11.03;92.46;98221.47;4993854;28;20069;-65
2022/09/15 06:08:15;;;;;;;0.10;0.10;;;;;;;11.02;92.38;98225.31;4991141;28;20060;-65
2022/09/15 06:10:41;;;;;;;0.10;0.10;;;;;;;11.00;91.68;98222.09;4995623;28;20468;-65
2022/09/15 06:13:07;;;;;;;0.15;0.15;;;;;;;10.94;92.17;98217.91;5011151;28;20567;-65
2022/09/15 06:15:35;;;;;;;0.20;0.20;;;;;;;10.95;92.06;98220.31;5011959;28;20046;-65
2022/09/15 06:18:01;;;;;;;;;;;;;;;10.97;92.05;98220.00;5012038;28;20046;-66
2022/09/15 06:20:27;;;;;;;0.20;0.20;;;;;;;11.02;91.45;98220.66;4992819;28;19926;-66
2022/09/15 06:22:54;;;;;;;0.20;0.20;;;;;;;11.15;91.48;98229.06;5000472;28;20052;-65
2022/09/15 06:25:20;;;;;;;0.20;0.20;;;;;;;11.23;90.76;98224.75;5017408;28;20096;-66
2022/09/15 06:27:48;;;;;;;0.10;0.10;;;;;;;11.23;90.59;98219.25;5000393;28;20049;-66
2022/09/15 06:30:14;;;;;;;0.10;0.10;;;;;;;11.23;90.11;98222.81;4989479;28;20041;-66
2022/09/15 06:32:42;;;;;;;0.20;0.20;;;;;;;11.23;90.18;98222.81;5014001;28;20134;-65
2022/09/15 06:35:08;;;;;;;0.10;0.10;;;;;;;11.21;89.33;98230.53;5015013;28;20045;-66
2022/09/15 06:37:34;;;;;;;0.10;0.10;;;;;;;11.12;89.26;98233.25;5015042;28;20068;-65
2022/09/15 06:40:01;;;;;;;0.20;0.20;;;;;;;11.08;89.58;98234.97;5016518;28;20525;-66
2022/09/15 06:42:29;;;;;;;0.30;0.30;;;;;;;11.06;89.57;98231.75;5017225;28;20073;-65
2022/09/15 06:44:55;;;;;;;0.20;0.20;;;;;;;11.07;89.51;98236.09;5000759;28;20060;-65
2022/09/15 06:47:22;;;;;;;0.20;0.20;;;;;;;11.13;89.68;98229.41;4998927;28;20072;-66
2022/09/15 06:49:49;;;;;;;0.10;0.10;;;;;;;11.21;89.29;98242.28;4997897;28;20065;-65
2022/09/15 06:52:15;;;;;;;0.10;0.10;;;;;;;11.19;89.00;98241.78;4998356;28;20041;-64
2022/09/15 06:54:41;;;;;;;0.20;0.20;;;;;;;11.17;88.57;98244.03;4990524;28;20038;-65
2022/09/15 06:57:07;;;;;;;0.10;0.10;;;;;;;11.14;88.83;98244.69;4965715;28;20074;-65
2022/09/15 06:59:33;;;;;;;0.20;0.20;;;;;;;11.13;89.02;98250.44;4995732;28;20568;-65
2022/09/15 07:01:59;;;;;;;0.10;0.10;;;;;;;11.01;88.88;98234.66;5006069;28;20053;-65
2022/09/15 07:04:25;;;;;;;0.40;0.20;;;;;;;11.13;89.02;98244.97;4986584;28;20046;-65
2022/09/15 07:06:53;;;;;;;0.20;0.20;;;;;;;11.17;88.80;98254.19;5006723;28;20450;-65
2022/09/15 07:09:19;;;;;;;0.22;0.20;;;;;;;11.25;88.96;98247.13;4990108;28;20207;-67
2022/09/15 07:11:45;;;;;;;0.10;0.10;;;;;;;11.30;88.90;98245.03;5005441;28;20132;-65
2022/09/15 07:14:11;;;;;;;0.10;0.10;;;;;;;11.33;88.42;98252.63;4976854;28;20148;-65
2022/09/15 07:16:39;;;;;;;0.20;0.20;;;;;;;11.40;88.44;98251.34;4987570;28;20535;-65
2022/09/15 07:19:05;;;;;;;0.20;0.20;;;;;;;11.43;88.44;98247.97;4974543;28;20046;-66
2022/09/15 07:21:33;;;;;;;0.20;0.20;;;;;;;11.44;87.82;98244.09;5003133;28;20069;-68
2022/09/15 07:24:01;;;;;;;0.20;0.20;;;;;;;11.40;87.66;98248.63;5005320;28;20046;-66
2022/09/15 07:26:28;;;;;;;0.20;0.20;;;;;;;11.38;87.58;98262.59;4986842;28;20054;-65
2022/09/15 07:28:56;;;;;;;0.20;0.20;;;;;;;11.37;87.48;98258.25;5007992;28;20050;-65
2022/09/15 07:31:23;;;;;;;0.20;0.20;;;;;;;11.40;87.85;98263.13;4985177;28;20045;-64
2022/09/15 07:33:51;;;;;;;0.20;0.20;;;;;;;11.45;87.64;98265.69;5006173;28;20074;-65
2022/09/15 07:36:17;;;;;;;0.13;0.13;;;;;;;11.52;87.32;98254.28;4975198;28;20117;-66
2022/09/15 07:38:46;;;;;;;0.10;0.10;;;;;;;11.61;87.31;98257.81;4986935;28;20159;-66
2022/09/15 07:41:15;;;;;;;0.20;0.20;;;;;;;11.61;86.61;98254.28;4990690;28;20653;-66
2022/09/15 07:43:45;;;;;;;0.20;0.20;;;;;;;11.60;86.59;98249.94;4992452;28;20050;-66
2022/09/15 07:46:10;;;;;;;0.22;0.22;;;;;;;11.68;86.64;98251.88;4986246;28;20076;-66
2022/09/15 07:48:36;;;;;;;0.20;0.20;;;;;;;11.80;86.65;98259.47;4984870;28;20604;-66
2022/09/15 07:51:03;;;;;;;0.30;0.30;;;;;;;11.96;85.94;98251.59;5003639;28;20073;-66
2022/09/15 07:53:29;;;;;;;0.20;0.20;;;;;;;12.00;85.53;98259.97;4986096;28;20053;-65
2022/09/15 07:55:56;;;;;;;0.20;0.20;;;;;;;12.02;85.41;98264.03;4983748;28;20405;-65
2022/09/15 07:58:24;;;;;;;0.20;0.20;;;;;;;11.94;85.19;98264.81;4984855;28;20081;-65
2022/09/15 08:00:52;;;;;;;0.10;0.10;;;;;;;11.94;85.15;98266.72;4970433;28;20080;-65
2022/09/15 08:03:22;;;;;;;0.20;0.20;;;;;;;11.87;85.17;98270.75;5000259;28;20144;-65
2022/09/15 08:05:56;;;;;;;0.20;0.20;;;;;;;11.87;85.26;98262.53;4983875;28;20055;-66
2022/09/15 08:08:22;;;;;;;0.20;0.20;;;;;;;11.77;85.18;98260.94;5008869;28;20057;-65
2022/09/15 08:10:49;;;;;;;0.10;0.10;;;;;;;11.90;85.21;98269.31;4987443;28;20599;-65
2022/09/15 08:13:17;;;;;;;0.20;0.20;;;;;;;11.92;84.90;98267.06;5006215;28;20107;-65
2022/09/15 08:15:44;;;;;;;0.20;0.20;;;;;;;11.92;84.96;98267.84;4973378;28;20395;-65
2022/09/15 08:18:10;;;;;;;0.20;0.20;;;;;;;12.01;85.03;98270.63;5002687;28;20429;-66
2022/09/15 08:20:37;;;;;;;0.13;0.13;;;;;;;11.89;84.48;98246.59;5008332;28;20053;-65
2022/09/15 08:23:03;;;;;;;0.20;0.20;;;;;;;12.01;84.65;98265.16;5008141;28;20042;-66
2022/09/15 08:25:29;;;;;;;0.25;0.20;;;;;;;11.98;84.12;98267.72;4982742;28;20046;-65
2022/09/15 08:27:55;;;;;;;0.20;0.20;;;;;;;11.98;84.24;98271.25;5002910;28;20517;-65
2022/09/15 08:30:22;;;;;;;0.20;0.20;;;;;;;12.05;84.42;98273.53;5009026;28;20046;-65
2022/09/15 08:32:50;;;;;;;0.20;0.20;;;;;;;12.15;83.76;98261.44;4987544;28;20077;-66
2022/09/15 08:35:16;;;;;;;;;;;;;;;12.20;83.34;98267.56;4989483;28;20501;-65
2022/09/15 08:37:42;;;;;;;0.10;0.10;;;;;;;12.23;83.28;98266.13;4990306;28;19925;-66
2022/09/15 08:40:15;;;;;;;0.20;0.20;;;;;;;12.36;83.10;98264.34;4982198;28;20050;-65
2022/09/15 08:42:43;;;;;;;0.10;0.10;;;;;;;12.40;82.21;98265.28;4978728;28;20526;-65
2022/09/15 08:45:20;;;;;;;0.15;0.15;;;;;;;12.39;82.42;98268.38;4974638;28;20581;-65
2022/09/15 08:47:54;;;;;;;0.20;0.20;;;;;;;12.41;82.41;98266.94;4969057;28;20050;-66
2022/09/15 08:50:27;;;;;;;0.22;0.20;;;;;;;12.45;81.91;98264.31;4958483;28;20038;-65
2022/09/15 08:52:59;;;;;;;0.20;0.20;;;;;;;12.43;82.12;98272.06;4984784;28;20073;-65
2022/09/15 08:55:36;;;;;;;0.20;0.20;;;;;;;12.51;82.12;98274.00;4985222;28;20757;-66
2022/09/15 08:58:02;;;;;;;0.70;0.30;;;;;;;12.68;81.79;98272.34;4981550;28;20116;-65
2022/09/15 09:00:30;;;;;;;0.20;0.20;;;;;;;12.66;80.69;98269.13;4953102;28;20046;-65
2022/09/15 09:03:19;;;;;;;0.20;0.20;;;;;;;12.69;81.11;98277.50;4967209;28;20054;-66
2022/09/15 09:05:54;;;;;;;0.20;0.20;;;;;;;12.76;80.55;98277.00;4989114;28;20076;-66
2022/09/15 09:08:54;;;;;;;0.20;0.20;;;;;;;12.70;79.86;98278.31;4988997;28;20046;-66
2022/09/15 09:11:35;;;;;;;0.20;0.20;;;;;;;12.67;80.71;98278.97;4983427;28;20537;-65
2022/09/15 09:14:13;;;;;;;0.20;0.20;;;;;;;12.81;80.63;98274.09;4986262;28;20095;-66
2022/09/15 09:16:58;;;;;;;0.20;0.20;;;;;;;13.02;80.18;98289.84;4984039;28;20048;-65
2022/09/15 09:19:51;;;;;;;0.30;0.30;;;;;;;12.99;79.47;98288.56;4983494;28;20050;-65
2022/09/15 09:22:23;;;;;;;0.20;0.20;;;;;;;12.87;79.31;98288.41;4966020;28;20137;-64
2022/09/15 09:24:52;;;;;;;0.30;0.30;;;;;;;12.93;79.74;98289.06;5001503;28;20069;-65
2022/09/15 09:27:22;;;;;;;0.20;0.20;;;;;;;12.95;79.45;98284.84;4988347;28;20437;-64
2022/09/15 09:29:56;;;;;;;0.32;0.30;;;;;;;12.95;79.13;98295.00;4985016;28;20138;-65
2022/09/15 09:32:24;;;;;;;0.20;0.20;;;;;;;12.88;79.32;98292.81;4982571;28;20046;-65
2022/09/15 09:34:59;;;;;;;0.20;0.20;;;;;;;12.74;79.87;98295.72;4986697;28;20585;-64
2022/09/15 09:37:27;;;;;;;0.20;0.20;;;;;;;12.68;80.03;98292.34;4969706;28;20051;-66
2022/09/15 09:39:54;;;;;;;0.25;0.25;;;;;;;12.70;79.93;98301.03;4986471;28;20591;-66
2022/09/15 09:42:29;;;;;;;0.20;0.20;;;;;;;12.62;80.24;98299.94;4986376;28;20066;-64
2022/09/15 09:44:56;;;;;;;0.20;0.20;;;;;;;12.71;80.38;98290.91;4981637;28;20154;-65
2022/09/15 09:47:26;;;;;;;0.20;0.20;;;;;;;12.71;79.76;98302.66;4998456;28;20465;-64
2022/09/15 09:49:52;;;;;;;0.30;0.30;;;;;;;12.62;80.05;98297.19;4982256;28;20406;-67
2022/09/15 09:52:33;;;;;;;0.20;0.20;;;;;;;12.50;80.36;98296.25;4969647;28;20053;-64
2022/09/15 09:55:00;;;;;;;0.20;0.20;;;;;;;12.48;80.53;98305.59;5001559;28;20449;-64
2022/09/15 09:57:29;;;;;;;0.57;0.20;;;;;;;12.47;80.59;98304.00;5000949;28;20046;-64
2022/09/15 09:59:55;;;;;;;0.20;0.20;;;;;;;12.47;80.61;98305.91;5003617;28;20049;-65
2022/09/15 10:02:23;;;;;;;0.20;0.20;;;;;;;12.52;80.64;98310.44;5004865;28;20591;-65
2022/09/15 10:04:52;;;;;;;0.30;0.30;;;;;;;12.59;80.46;98303.31;5005067;28;20050;-64
2022/09/15 10:07:20;;;;;;;0.20;0.20;;;;;;;12.66;79.86;98313.00;5005312;28;20049;-65
2022/09/15 10:09:51;;;;;;;0.30;0.30;;;;;;;12.66;79.33;98308.31;4987647;28;20041;-65
2022/09/15 10:12:22;;;;;;;0.35;0.30;;;;;;;12.74;79.42;98309.44;4986012;28;20048;-64
2022/09/15 10:14:51;;;;;;;0.20;0.20;;;;;;;12.96;79.00;98313.09;4986198;28;20053;-65
2022/09/15 10:17:19;;;;;;;0.20;0.20;;;;;;;13.10;77.59;98310.94;4970684;28;20137;-65
2022/09/15 10:19:49;;;;;;;0.20;0.20;;;;;;;13.21;76.95;98305.91;5006620;28;20049;-64
2022/09/15 10:22:27;;;;;;;0.30;0.30;;;;;;;13.37;76.63;98319.88;4984645;28;20038;-64
2022/09/15 10:24:54;;;;;;;0.20;0.20;;;;;;;13.51;76.52;98313.41;5002786;28;20077;-66
2022/09/15 10:27:27;;;;;;;0.20;0.20;;;;;;;13.53;75.69;98308.38;5000735;28;20050;-65
2022/09/15 10:29:53;;;;;;;0.30;0.30;;;;;;;13.68;75.47;98315.25;4994515;28;20069;-66
2022/09/15 10:32:25;;;;;;;0.25;0.25;;;;;;;13.97;74.58;98316.34;4985779;28;20037;-66
2022/09/15 10:35:03;;;;;;;0.30;0.30;;;;;;;14.13;74.09;98314.66;5003450;28;20128;-67
2022/09/15 10:37:36;;;;;;;0.30;0.30;;;;;;;14.25;73.53;98315.84;5001255;28;20136;-65
2022/09/15 10:40:26;;;;;;;0.30;0.30;;;;;;;14.23;72.43;98318.13;4954238;28;20061;-66
2022/09/15 10:42:57;;;;;;;0.30;0.30;;;;;;;14.08;73.10;98325.81;4982076;28;20056;-66
2022/09/15 10:45:28;;;;;;;0.20;0.20;;;;;;;14.02;73.34;98321.66;5004652;28;20042;-66
2022/09/15 10:48:20;;;;;;;0.30;0.30;;;;;;;13.98;73.23;98327.03;4962058;28;1208824;-66
2022/09/15 10:50:54;;;;;;;0.30;0.30;;;;;;;14.02;73.20;98325.22;4999644;28;20050;-66
2022/09/15 10:53:35;;;;;;;0.30;0.30;;;;;;;14.02;72.93;98324.41;5007958;28;20137;-65
2022/09/15 10:56:13;;;;;;;0.30;0.30;;;;;;;13.97;73.09;98325.41;5009072;28;20132;-66
2022/09/15 10:58:55;;;;;;;0.20;0.20;;;;;;;14.08;73.09;98325.03;4989423;28;20061;-66
2022/09/15 11:01:38;;;;;;;0.30;0.30;;;;;;;13.89;73.14;98318.03;5004983;28;20531;-66
2022/09/15 11:04:27;;;;;;;0.30;0.30;;;;;;;13.71;73.74;98331.84;5001582;28;20132;-66
2022/09/15 11:07:01;;;;;;;0.25;0.25;;;;;;;13.48;74.85;98339.56;5006479;28;20050;-66
2022/09/15 11:09:32;;;;;;;0.20;0.20;;;;;;;13.44;74.97;98336.69;5007004;28;20591;-66
2022/09/15 11:12:15;;;;;;;0.20;0.20;;;;;;;13.43;75.01;98335.09;4974004;28;20056;-66
2022/09/15 11:14:56;;;;;;;0.20;0.20;;;;;;;13.27;75.65;98339.47;5007046;28;20034;-66
2022/09/15 11:17:47;;;;;;;0.20;0.20;;;;;;;13.17;76.50;98335.94;5000335;28;20042;-66
2022/09/15 11:20:52;;;;;;;0.30;0.30;;;;;;;13.11;76.78;98339.19;4972290;28;20606;-65
2022/09/15 11:23:25;;;;;;;0.30;0.30;;;;;;;13.00;77.18;98347.78;4972958;28;20054;-66
2022/09/15 11:25:58;;;;;;;0.20;0.20;;;;;;;12.87;77.54;98346.03;4986243;28;20472;-66
2022/09/15 11:28:29;;;;;;;0.20;0.20;;;;;;;12.79;77.83;98357.81;5007189;28;20107;-65
2022/09/15 11:30:59;;;;;;;0.20;0.20;;;;;;;12.64;78.51;98357.19;5004121;28;20065;-66
2022/09/15 11:33:30;;;;;;;0.20;0.20;;;;;;;12.65;78.86;98361.53;5006777;28;20525;-65
2022/09/15 11:36:03;;;;;;;0.28;0.28;;;;;;;12.60;78.63;98358.97;4979384;28;20049;-64
2022/09/15 11:38:34;;;;;;;0.15;0.15;;;;;;;12.63;78.79;98361.84;4983280;28;20061;-65
2022/09/15 11:41:13;;;;;;;0.20;0.20;;;;;;;12.51;78.95;98349.94;4959799;28;20050;-66
2022/09/15 11:43:45;;;;;;;0.20;0.20;;;;;;;12.57;78.64;98371.38;5003284;28;20042;-66
2022/09/15 11:46:17;;;;;;;0.20;0.20;;;;;;;12.45;79.04;98371.22;5006108;28;20049;-65
2022/09/15 11:48:51;;;;;;;0.10;0.10;;;;;;;12.36;79.67;98367.69;5010668;28;20070;-65
2022/09/15 11:51:22;;;;;;;0.20;0.20;;;;;;;12.33;79.77;98369.13;4975776;28;20054;-65